»·PEaware :: N123SX PASH-PAOT

N123SX :: PASH-PAOT

FLIGHT INFORMATION

Flight Status: Arrived
Operator: Privately registered:
United States
More flights under this callsign
Pilot: Shawn G. (7208)
Aircraft: Unknown
(PIPA)
More flights by this aircraft type
Origin: PASH New Shishmaref
United States
Destination: PAOT Wien Meml
United States
More flights between these airports :: More routes between these airports
Route: NECSI
File this flight plan on PilotEdge
Remarks:
Altitude:
(Current/Filed)
5,000ft
Speed:
(Current/Filed)
170kts
Departed: 16-Jul-17 10:45 PM
Arrived: 16-Jul-17 11:29 PM
Distance/Time
Traveled:
92nm/0:44
Distance/Time
To Go:
Arrived

Flight Plot

Page will automatically refresh every two minutes.

Flight plan parsing failed; only flown route is shown


Map Options




Map Legend


Flown Route
Filed Route
Departure Airport
Arrival Airport
Navaid (VOR, NDB)
Fix

Horizontal Profiles

Position Reports

Time Latitude Longitude Heading Altitude Ground
Speed
16-Jul-17 22:45 66.252034 -166.074172 65 13ft 0kts
16-Jul-17 22:46 66.252034 -166.074172 65 13ft 0kts
16-Jul-17 22:47 66.252157 -166.073855 5 13ft 4kts
16-Jul-17 22:48 66.250434 -166.085165 239 31ft 91kts
16-Jul-17 22:49 66.231379 -166.119355 122 1049ft 106kts
16-Jul-17 22:50 66.240709 -166.046555 80 1140ft 124kts
16-Jul-17 22:51 66.252279 -165.974072 69 2358ft 109kts
16-Jul-17 22:52 66.264107 -165.908318 69 4306ft 106kts
16-Jul-17 22:53 66.279363 -165.825763 69 5017ft 174kts
16-Jul-17 22:54 66.300724 -165.703993 69 5001ft 202kts
16-Jul-17 22:55 66.323290 -165.573792 69 4999ft 207kts
16-Jul-17 22:56 66.346044 -165.441797 68 4999ft 207kts
16-Jul-17 22:57 66.367611 -165.317154 69 4991ft 171kts
16-Jul-17 22:58 66.384841 -165.220942 69 4993ft 137kts
16-Jul-17 22:59 66.400351 -165.135861 69 5001ft 138kts
16-Jul-17 23:00 66.416389 -165.046791 69 5001ft 142kts
16-Jul-17 23:01 66.431647 -164.953791 75 5006ft 152kts
16-Jul-17 23:02 66.445593 -164.848027 74 5012ft 169kts
16-Jul-17 23:03 66.460776 -164.732983 74 5020ft 177kts
16-Jul-17 23:04 66.476336 -164.614671 74 5027ft 180kts
16-Jul-17 23:05 66.491978 -164.495085 74 5027ft 181kts
16-Jul-17 23:06 66.507622 -164.374730 74 5027ft 181kts
16-Jul-17 23:07 66.523123 -164.254701 75 5027ft 181kts
16-Jul-17 23:08 66.539367 -164.127678 75 5029ft 200kts
16-Jul-17 23:09 66.556555 -163.992520 75 5028ft 205kts
16-Jul-17 23:10 66.573886 -163.855359 75 5029ft 206kts
16-Jul-17 23:11 66.591175 -163.717600 75 5034ft 206kts
16-Jul-17 23:12 66.608274 -163.579639 76 5037ft 207kts
16-Jul-17 23:13 66.622786 -163.440360 75 5037ft 207kts
16-Jul-17 23:14 66.639916 -163.302602 76 4433ft 205kts
16-Jul-17 23:15 66.656651 -163.166246 76 3434ft 201kts
16-Jul-17 23:16 66.672969 -163.033171 75 2440ft 197kts
16-Jul-17 23:17 66.688968 -162.908786 74 1630ft 169kts
16-Jul-17 23:18 66.701961 -162.810139 74 1618ft 127kts
16-Jul-17 23:19 66.724722 -162.769056 350 1639ft 131kts
16-Jul-17 23:20 66.757953 -162.823333 302 1629ft 154kts
16-Jul-17 23:21 66.773508 -162.924877 280 1628ft 156kts
16-Jul-17 23:22 66.787822 -163.027737 310 1627ft 160kts
16-Jul-17 23:23 66.827573 -163.071993 0 1626ft 161kts
16-Jul-17 23:24 66.871845 -163.061701 10 1628ft 160kts
16-Jul-17 23:25 66.916404 -163.057869 349 1621ft 156kts
16-Jul-17 23:26 66.919440 -162.988702 68 1598ft 125kts
16-Jul-17 23:27 66.908961 -162.907217 122 1484ft 122kts
16-Jul-17 23:28 66.902269 -162.822150 100 1637ft 135kts
16-Jul-17 23:29 66.897476 -162.740688 102 1009ft 84kts
16-Jul-17 23:30 66.893750 -162.679905 101 599ft 89kts
16-Jul-17 23:31 66.890658 -162.621638 108 153ft 72kts
16-Jul-17 23:32 66.890103 -162.600882 282 20ft 13kts
16-Jul-17 23:33 66.890873 -162.603572 234 20ft 0kts
16-Jul-17 23:34 66.890873 -162.603572 234 20ft 0kts
16-Jul-17 23:35 66.890873 -162.603572 234 20ft 0kts
16-Jul-17 23:36 66.890873 -162.603572 234 20ft 0kts
16-Jul-17 23:37 66.890873 -162.603572 234 20ft 0kts
16-Jul-17 23:38 66.890873 -162.603572 234 20ft 0kts
16-Jul-17 23:39 66.890873 -162.603572 234 20ft 0kts
16-Jul-17 23:40 66.890873 -162.603572 234 20ft 0kts
16-Jul-17 23:41 66.890873 -162.603572 234 20ft 0kts
16-Jul-17 23:42 66.890873 -162.603572 235 20ft 0kts
16-Jul-17 23:43 66.890873 -162.603572 235 20ft 0kts
16-Jul-17 23:44 66.890873 -162.603572 235 20ft 0kts
16-Jul-17 23:45 66.890873 -162.603572 235 20ft 0kts
16-Jul-17 23:46 66.890873 -162.603572 235 20ft 0kts
16-Jul-17 23:47 66.890873 -162.603572 235 20ft 0kts

Navigation Log

Ident Type
Flight plan parsing failed, navigation log unavailable